Time;durP1;ratioP1;P1;durP2;ratioP2;P2;SDS_P1;SDS_P2;PMS_P1;PMS_P2;Temp;Humidity;BMP_temperature;BMP_pressure;BME280_temperature;BME280_humidity;BME280_pressure;Samples;Min_cycle;Max_cycle;Signal;HPM_P1;HPM_P2
2022/12/09 00:00:36;;;;;;;101.33;37.30;;;-0.80;99.90;;;;;;5021444;28;20123;-77
2022/12/09 00:03:01;;;;;;;102.23;38.63;;;-0.80;99.90;;;;;;5021224;28;20455;-77
2022/12/09 00:05:27;;;;;;;109.13;39.77;;;-0.80;99.90;;;;;;5021282;28;20037;-77
2022/12/09 00:07:52;;;;;;;101.57;37.87;;;-0.80;99.90;;;;;;5020596;28;20037;-77
2022/12/09 00:10:18;;;;;;;109.53;39.57;;;-0.70;99.90;;;;;;5021367;28;20025;-77
2022/12/09 00:12:44;;;;;;;98.53;39.30;;;-0.70;99.90;;;;;;5021599;28;20126;-77
2022/12/09 00:15:10;;;;;;;121.27;40.27;;;-0.70;99.90;;;;;;5021871;28;20379;-77
2022/12/09 00:17:35;;;;;;;135.97;40.20;;;-0.70;99.90;;;;;;5025592;28;20470;-78
2022/12/09 00:20:01;;;;;;;105.50;40.33;;;-0.70;99.90;;;;;;5025603;28;20124;-77
2022/12/09 00:22:27;;;;;;;134.93;39.50;;;-0.70;99.90;;;;;;5028828;28;20038;-77
2022/12/09 00:24:52;;;;;;;116.00;40.77;;;-0.70;99.90;;;;;;5024184;28;20142;-77
2022/12/09 00:27:18;;;;;;;116.90;39.47;;;-0.70;99.90;;;;;;5024472;28;20155;-77
2022/12/09 00:29:43;;;;;;;118.27;40.90;;;-0.70;99.90;;;;;;5024535;28;20025;-77
2022/12/09 00:32:09;;;;;;;127.60;37.70;;;-0.70;99.90;;;;;;5024619;28;20104;-77
2022/12/09 00:34:35;;;;;;;197.90;35.03;;;-0.60;99.90;;;;;;5024454;28;20029;-77
2022/12/09 00:37:00;;;;;;;127.33;34.47;;;-0.60;99.90;;;;;;5024645;28;20033;-77
2022/12/09 00:39:26;;;;;;;198.33;36.30;;;-0.60;99.90;;;;;;5024981;28;20030;-77
2022/12/09 00:41:51;;;;;;;97.70;34.37;;;-0.70;99.90;;;;;;5024800;28;20040;-77
2022/12/09 00:44:17;;;;;;;186.13;34.73;;;-0.60;99.90;;;;;;5025304;28;20044;-78
2022/12/09 00:46:43;;;;;;;131.97;34.40;;;-0.70;99.90;;;;;;5026759;28;20026;-77
2022/12/09 00:49:09;;;;;;;69.10;32.70;;;-0.70;99.90;;;;;;5026388;28;20033;-77
2022/12/09 00:51:35;;;;;;;92.10;34.83;;;-0.70;99.90;;;;;;5025744;28;20029;-77
2022/12/09 00:54:01;;;;;;;70.73;32.33;;;-0.70;99.90;;;;;;5026976;28;20068;-77
2022/12/09 00:56:28;;;;;;;147.33;33.40;;;-0.70;99.90;;;;;;5026989;28;20104;-77
2022/12/09 00:58:54;;;;;;;122.73;33.57;;;-0.70;99.90;;;;;;5026173;28;20037;-77
2022/12/09 01:01:20;;;;;;;117.60;34.30;;;-0.70;99.90;;;;;;5026683;28;20037;-77
2022/12/09 01:03:46;;;;;;;170.77;35.20;;;-0.70;99.90;;;;;;5026137;28;20049;-77
2022/12/09 01:06:19;;;;;;;119.47;34.93;;;-0.80;99.90;;;;;;5029614;28;20132;-78
2022/12/09 01:08:45;;;;;;;125.30;32.37;;;-0.80;99.90;;;;;;5029341;28;20021;-77
2022/12/09 01:11:15;;;;;;;82.23;31.10;;;-0.80;99.90;;;;;;5030310;28;20097;-77
2022/12/09 01:13:41;;;;;;;209.97;32.67;;;-0.80;99.90;;;;;;5029076;28;20052;-77
2022/12/09 01:16:22;;;;;;;149.10;31.37;;;-0.80;99.90;;;;;;5029663;28;20045;-77
2022/12/09 01:18:48;;;;;;;142.37;31.53;;;-0.80;99.90;;;;;;5029238;28;20033;-77
2022/12/09 01:21:13;;;;;;;84.37;30.30;;;-0.90;99.90;;;;;;5029386;28;20033;-77
2022/12/09 01:23:40;;;;;;;134.87;31.13;;;-0.90;99.90;;;;;;5017268;28;20040;-77
2022/12/09 01:26:06;;;;;;;130.50;30.87;;;-0.90;99.90;;;;;;5029194;28;20033;-77
2022/12/09 01:28:37;;;;;;;169.47;32.83;;;-0.90;99.90;;;;;;5027594;28;20025;-77
2022/12/09 01:31:14;;;;;;;215.40;32.83;;;-1.00;99.90;;;;;;5028831;28;20033;-77
2022/12/09 01:33:40;;;;;;;90.73;32.10;;;-1.00;99.90;;;;;;5028581;28;20079;-77
2022/12/09 01:36:08;;;;;;;177.63;29.77;;;-1.00;99.90;;;;;;5028812;28;20032;-77
2022/12/09 01:38:34;;;;;;;353.87;33.47;;;-1.10;99.90;;;;;;5029160;28;20040;-77
2022/12/09 01:41:00;;;;;;;203.63;32.13;;;-1.10;99.90;;;;;;5029292;28;20030;-77
2022/12/09 01:43:26;;;;;;;292.80;33.27;;;-1.20;99.90;;;;;;5029215;28;20398;-77
2022/12/09 01:45:52;;;;;;;108.23;29.40;;;-1.20;99.90;;;;;;5029683;28;20036;-77
2022/12/09 01:48:21;;;;;;;142.20;30.37;;;-1.20;99.90;;;;;;5028300;28;20462;-77
2022/12/09 01:50:52;;;;;;;89.93;31.43;;;-1.20;99.90;;;;;;5029517;28;20021;-77
2022/12/09 01:53:22;;;;;;;135.27;29.77;;;-1.20;99.90;;;;;;5028715;28;20485;-77
2022/12/09 01:55:48;;;;;;;146.37;29.87;;;-1.20;99.90;;;;;;5028396;28;20037;-77
2022/12/09 01:58:14;;;;;;;175.37;29.90;;;-1.20;99.90;;;;;;5029079;28;20037;-78
2022/12/09 02:00:41;;;;;;;277.93;30.67;;;-1.20;99.90;;;;;;5016996;28;20033;-78
2022/12/09 02:03:07;;;;;;;317.20;31.33;;;-1.20;99.90;;;;;;5028384;28;20474;-78
2022/12/09 02:05:33;;;;;;;186.07;29.93;;;-1.30;99.90;;;;;;5027584;28;20057;-77
2022/12/09 02:07:59;;;;;;;175.27;30.67;;;-1.30;99.90;;;;;;5027377;28;20480;-77
2022/12/09 02:10:26;;;;;;;79.70;29.80;;;-1.30;99.90;;;;;;5028116;28;20087;-77
2022/12/09 02:13:10;;;;;;;224.87;30.57;;;-1.30;99.90;;;;;;5027831;28;20025;-77
2022/12/09 02:15:47;;;;;;;182.87;30.97;;;-1.40;99.90;;;;;;5028872;28;20038;-77
2022/12/09 02:18:24;;;;;;;153.73;30.80;;;-1.30;99.90;;;;;;5028711;28;20029;-77
2022/12/09 02:20:58;;;;;;;71.57;27.27;;;-1.40;99.90;;;;;;5028630;28;20426;-77
2022/12/09 02:23:42;;;;;;;103.57;27.90;;;-1.40;99.90;;;;;;5027439;28;20041;-77
2022/12/09 02:26:40;;;;;;;142.27;30.03;;;-1.40;99.90;;;;;;5028507;28;20045;-77
2022/12/09 02:29:12;;;;;;;116.47;29.93;;;-1.40;99.90;;;;;;5028161;28;20041;-76
2022/12/09 02:31:49;;;;;;;130.53;31.30;;;-1.50;99.90;;;;;;5027716;28;20037;-77
2022/12/09 02:34:20;;;;;;;81.13;30.30;;;-1.50;99.90;;;;;;5028555;28;20032;-77
2022/12/09 02:36:58;;;;;;;96.93;32.80;;;-1.50;99.90;;;;;;5027600;28;20021;-77
2022/12/09 02:39:59;;;;;;;140.33;32.70;;;-1.40;99.90;;;;;;5025876;28;20041;-77
2022/12/09 02:42:29;;;;;;;103.03;32.37;;;-1.50;99.90;;;;;;5023601;28;20522;-77
2022/12/09 02:44:57;;;;;;;110.93;32.00;;;-1.50;99.90;;;;;;5027349;28;20025;-77
2022/12/09 02:47:27;;;;;;;107.67;32.53;;;-1.50;99.90;;;;;;5028825;28;20094;-77
2022/12/09 02:49:58;;;;;;;101.97;31.67;;;-1.50;99.90;;;;;;5026982;28;20056;-77
2022/12/09 02:52:25;;;;;;;66.17;32.67;;;-1.50;99.90;;;;;;5027562;28;20052;-77
2022/12/09 02:54:51;;;;;;;115.17;32.17;;;-1.50;99.90;;;;;;5015493;28;20379;-77
2022/12/09 02:57:22;;;;;;;80.00;32.23;;;-1.50;99.90;;;;;;5028113;28;20033;-77
2022/12/09 02:59:48;;;;;;;69.40;30.83;;;-1.40;99.90;;;;;;5013842;28;20021;-77
2022/12/09 03:02:34;;;;;;;87.40;31.57;;;-1.50;99.90;;;;;;5028623;28;20063;-76
2022/12/09 03:05:24;;;;;;;101.73;30.23;;;-1.40;99.90;;;;;;5026474;28;20083;-76
2022/12/09 03:08:30;;;;;;;62.37;30.93;;;-1.50;99.90;;;;;;5026581;28;20025;-76
2022/12/09 03:10:58;;;;;;;86.67;28.77;;;-1.50;99.90;;;;;;4961939;28;20034;-76
2022/12/09 03:13:30;;;;;;;90.47;28.50;;;-1.50;99.90;;;;;;5017564;28;20252;-76
2022/12/09 03:16:06;;;;;;;116.87;29.43;;;-1.50;99.90;;;;;;5026967;28;20026;-76
2022/12/09 03:18:33;;;;;;;117.73;29.17;;;-1.50;99.90;;;;;;5027100;28;20021;-76
2022/12/09 03:21:01;;;;;;;68.47;29.53;;;-1.50;99.90;;;;;;5017571;28;20389;-76
2022/12/09 03:23:29;;;;;;;65.10;30.50;;;-1.50;99.90;;;;;;5028354;28;20104;-76
2022/12/09 03:25:55;;;;;;;102.67;31.13;;;-1.50;99.90;;;;;;5027282;28;20040;-76
2022/12/09 03:28:31;;;;;;;57.43;30.10;;;-1.50;99.90;;;;;;5029057;28;20099;-76
2022/12/09 03:30:58;;;;;;;;;;;-1.50;99.90;;;;;;5028476;28;20024;-76
2022/12/09 03:33:26;;;;;;;51.67;27.07;;;-1.40;99.90;;;;;;5027915;28;20326;-76
2022/12/09 03:36:00;;;;;;;66.47;28.67;;;-1.40;99.90;;;;;;5053382;28;20037;-75
2022/12/09 03:38:30;;;;;;;84.50;29.43;;;-1.40;99.90;;;;;;5028210;28;20507;-76
2022/12/09 03:41:04;;;;;;;79.70;31.17;;;-1.30;99.90;;;;;;5024932;28;20108;-76
2022/12/09 03:43:34;;;;;;;57.13;28.40;;;-1.30;99.90;;;;;;5028441;28;20108;-76
2022/12/09 03:46:00;;;;;;;71.67;29.53;;;-1.30;99.90;;;;;;5019187;28;20374;-75
2022/12/09 03:48:26;;;;;;;64.57;28.90;;;-1.30;99.90;;;;;;5028343;28;20030;-76
2022/12/09 03:51:01;;;;;;;57.10;28.37;;;-1.30;99.90;;;;;;5026981;28;20089;-75
2022/12/09 03:53:35;;;;;;;55.67;28.92;;;-1.30;99.90;;;;;;5016198;28;20026;-75
2022/12/09 03:56:14;;;;;;;57.60;28.50;;;-1.30;99.90;;;;;;5028467;28;20025;-75
2022/12/09 03:58:43;;;;;;;66.53;28.87;;;-1.30;99.90;;;;;;5026213;28;20022;-75
2022/12/09 04:01:09;;;;;;;106.70;29.97;;;-1.30;99.90;;;;;;5027879;28;20539;-75
2022/12/09 04:03:34;;;;;;;60.93;29.53;;;-1.30;99.90;;;;;;5028736;28;20029;-75
2022/12/09 04:06:00;;;;;;;56.63;28.40;;;-1.30;99.90;;;;;;5027605;28;20075;-75
2022/12/09 04:08:26;;;;;;;52.93;28.03;;;-1.30;99.90;;;;;;5028411;28;20022;-76
2022/12/09 04:10:51;;;;;;;51.00;27.37;;;-1.30;99.90;;;;;;5026410;28;20029;-76
2022/12/09 04:13:17;;;;;;;52.67;28.70;;;-1.30;99.90;;;;;;5028806;28;20025;-76
2022/12/09 04:15:42;;;;;;;54.90;28.63;;;-1.30;99.90;;;;;;5028100;28;20666;-76
2022/12/09 04:18:08;;;;;;;50.83;26.67;;;-1.30;99.90;;;;;;5027190;28;20018;-76
2022/12/09 04:20:33;;;;;;;54.87;28.33;;;-1.30;99.90;;;;;;5028260;28;20021;-76
2022/12/09 04:22:59;;;;;;;56.57;28.37;;;-1.30;99.90;;;;;;5027930;28;20096;-76
2022/12/09 04:25:24;;;;;;;53.53;29.17;;;-1.40;99.90;;;;;;5017316;28;20036;-76
2022/12/09 04:27:50;;;;;;;58.43;30.23;;;-1.30;99.90;;;;;;5026767;28;20860;-75
2022/12/09 04:30:16;;;;;;;57.40;28.70;;;-1.40;99.90;;;;;;5027308;28;20068;-76
2022/12/09 04:32:42;;;;;;;58.30;29.07;;;-1.40;99.90;;;;;;5029827;28;20052;-76
2022/12/09 04:35:08;;;;;;;57.03;29.50;;;-1.40;99.90;;;;;;5032654;28;20104;-75
2022/12/09 04:37:36;;;;;;;54.20;28.43;;;-1.40;99.90;;;;;;5035323;28;20021;-76
2022/12/09 04:40:04;;;;;;;49.87;27.70;;;-1.40;99.90;;;;;;5029797;28;20017;-76
2022/12/09 04:42:29;;;;;;;48.37;26.60;;;-1.40;99.90;;;;;;5028936;28;20033;-75
2022/12/09 04:44:55;;;;;;;49.77;26.83;;;-1.40;99.90;;;;;;5028230;28;20025;-75
2022/12/09 04:47:20;;;;;;;46.97;25.10;;;-1.40;99.90;;;;;;5026251;28;20030;-76
2022/12/09 04:49:46;;;;;;;48.53;26.00;;;-1.40;99.90;;;;;;5027428;28;20041;-76
2022/12/09 04:52:12;;;;;;;42.87;23.73;;;-1.40;99.90;;;;;;5027150;28;20022;-76
2022/12/09 04:54:37;;;;;;;45.97;25.63;;;-1.40;99.90;;;;;;5027299;28;20026;-75
2022/12/09 04:57:03;;;;;;;42.47;23.33;;;-1.30;99.90;;;;;;5026874;28;20021;-76
2022/12/09 04:59:30;;;;;;;42.23;23.27;;;-1.30;99.90;;;;;;5027333;28;20021;-76
2022/12/09 05:01:55;;;;;;;36.07;22.10;;;-1.30;99.90;;;;;;5028461;28;20033;-76
2022/12/09 05:04:21;;;;;;;37.40;21.43;;;-1.30;99.90;;;;;;5030689;28;20028;-76
2022/12/09 05:06:46;;;;;;;41.33;22.60;;;-1.30;99.90;;;;;;5017388;28;20045;-76
2022/12/09 05:09:12;;;;;;;37.20;22.00;;;-1.20;99.90;;;;;;5031280;28;20490;-76
2022/12/09 05:11:38;;;;;;;36.80;22.63;;;-1.20;99.90;;;;;;5030250;28;20048;-76
2022/12/09 05:14:04;;;;;;;43.23;24.03;;;-1.20;99.90;;;;;;5019558;28;20110;-76
2022/12/09 05:16:29;;;;;;;42.93;22.47;;;-1.10;99.90;;;;;;5030190;28;20034;-76
2022/12/09 05:18:57;;;;;;;40.73;22.70;;;-1.10;99.90;;;;;;5018916;28;20712;-76
2022/12/09 05:21:23;;;;;;;50.87;31.03;;;-1.10;99.90;;;;;;5028530;28;20021;-76
2022/12/09 05:23:49;;;;;;;39.07;23.67;;;-1.10;99.90;;;;;;5028044;28;20049;-76
2022/12/09 05:26:17;;;;;;;41.83;25.47;;;-1.10;99.90;;;;;;5028389;28;20064;-76
2022/12/09 05:28:42;;;;;;;44.27;24.63;;;-1.00;99.90;;;;;;5028611;28;20116;-76
2022/12/09 05:31:18;;;;;;;40.43;24.17;;;-1.00;99.90;;;;;;5028165;28;20104;-76
2022/12/09 05:33:45;;;;;;;38.63;22.90;;;-1.00;99.90;;;;;;5015216;28;20461;-76
2022/12/09 05:36:13;;;;;;;39.97;22.40;;;-1.00;99.90;;;;;;5027627;28;20025;-77
2022/12/09 05:38:39;;;;;;;43.53;25.73;;;-1.00;99.90;;;;;;5025861;28;20087;-77
2022/12/09 05:41:05;;;;;;;41.37;25.30;;;-1.00;99.90;;;;;;5027331;28;20025;-77
2022/12/09 05:43:32;;;;;;;40.97;26.43;;;-1.00;99.90;;;;;;5028046;28;20525;-77
2022/12/09 05:45:58;;;;;;;50.83;30.70;;;-1.00;99.90;;;;;;5025301;28;20034;-77
2022/12/09 05:48:23;;;;;;;73.13;37.63;;;-1.00;99.90;;;;;;5028084;28;20023;-77
2022/12/09 05:51:00;;;;;;;58.13;29.80;;;-1.00;99.90;;;;;;5028835;28;20498;-77
2022/12/09 05:53:26;;;;;;;54.80;28.93;;;-1.00;99.90;;;;;;5026034;28;20052;-77
2022/12/09 05:55:52;;;;;;;55.20;29.90;;;-0.90;99.90;;;;;;5026406;28;20064;-78
2022/12/09 05:58:18;;;;;;;68.73;37.17;;;-0.90;99.90;;;;;;5027839;28;20025;-78
2022/12/09 06:00:44;;;;;;;47.80;25.63;;;-0.90;99.90;;;;;;5025936;28;20030;-78
2022/12/09 06:03:09;;;;;;;44.60;27.30;;;-0.90;99.90;;;;;;5026781;28;20432;-77
2022/12/09 06:05:36;;;;;;;48.33;30.30;;;-1.00;99.90;;;;;;5027482;28;20045;-78
2022/12/09 06:08:02;;;;;;;42.83;23.10;;;-1.00;99.90;;;;;;5025206;28;20030;-77
2022/12/09 06:10:28;;;;;;;42.93;25.47;;;-1.00;99.90;;;;;;5025584;28;20026;-77
2022/12/09 06:12:54;;;;;;;39.77;23.17;;;-1.00;99.90;;;;;;5025852;28;20091;-77
2022/12/09 06:15:20;;;;;;;42.07;22.97;;;-1.00;99.90;;;;;;5027349;28;20666;-77
2022/12/09 06:17:46;;;;;;;48.80;25.40;;;-1.00;99.90;;;;;;5026234;28;20057;-77
2022/12/09 06:20:11;;;;;;;48.43;24.10;;;-1.00;99.90;;;;;;5025714;28;20152;-77
2022/12/09 06:22:37;;;;;;;38.03;22.60;;;-1.00;99.90;;;;;;5026083;28;20459;-77
2022/12/09 06:25:03;;;;;;;37.80;22.10;;;-1.00;99.90;;;;;;5023960;28;20034;-77
2022/12/09 06:27:29;;;;;;;38.50;22.43;;;-1.00;99.90;;;;;;5024090;28;20040;-77
2022/12/09 06:29:55;;;;;;;36.37;21.20;;;-1.00;99.90;;;;;;5026758;28;20132;-77
2022/12/09 06:32:21;;;;;;;37.33;22.37;;;-1.00;99.90;;;;;;5027750;28;20112;-76
2022/12/09 06:34:47;;;;;;;38.03;21.63;;;-1.00;99.90;;;;;;5026312;28;20040;-76
2022/12/09 06:37:15;;;;;;;33.20;20.70;;;-1.00;99.90;;;;;;5027871;28;20032;-75
2022/12/09 06:39:41;;;;;;;35.27;20.90;;;-1.00;99.90;;;;;;5026285;28;20041;-75
2022/12/09 06:42:06;;;;;;;35.27;20.53;;;-1.00;99.90;;;;;;5026987;28;20032;-75
2022/12/09 06:44:39;;;;;;;33.90;19.67;;;-1.00;99.90;;;;;;5015918;28;20041;-76
2022/12/09 06:47:06;;;;;;;31.83;19.37;;;-1.00;99.90;;;;;;5028362;28;20025;-75
2022/12/09 06:49:32;;;;;;;29.43;16.93;;;-1.00;99.90;;;;;;5029480;28;20053;-75
2022/12/09 06:51:58;;;;;;;29.33;17.43;;;-1.00;99.90;;;;;;5027212;28;20350;-75
2022/12/09 06:54:24;;;;;;;35.17;21.00;;;-1.00;99.90;;;;;;5027416;28;20029;-76
2022/12/09 06:56:49;;;;;;;31.20;18.60;;;-1.00;99.90;;;;;;5015775;28;20061;-76
2022/12/09 06:59:15;;;;;;;52.83;33.63;;;-1.00;99.90;;;;;;5027375;28;20554;-76
2022/12/09 07:01:41;;;;;;;53.47;31.93;;;-1.00;99.90;;;;;;5028028;28;20040;-76
2022/12/09 07:04:06;;;;;;;46.00;27.03;;;-1.00;99.90;;;;;;5029791;28;20043;-76
2022/12/09 07:06:33;;;;;;;40.13;23.50;;;-1.00;99.90;;;;;;5026908;28;20045;-75
2022/12/09 07:09:03;;;;;;;54.13;31.80;;;-1.00;99.90;;;;;;5028413;28;20112;-75
2022/12/09 07:11:30;;;;;;;34.37;20.47;;;-1.00;99.90;;;;;;5027925;28;20022;-75
2022/12/09 07:13:55;;;;;;;32.43;17.47;;;-1.00;99.90;;;;;;5027936;28;20032;-76
2022/12/09 07:16:21;;;;;;;33.93;17.17;;;-0.90;99.90;;;;;;5027305;28;20025;-75
2022/12/09 07:18:47;;;;;;;33.57;20.17;;;-0.90;99.90;;;;;;5023603;28;20120;-77
2022/12/09 07:21:15;;;;;;;51.57;25.30;;;-0.90;99.90;;;;;;5022027;28;20389;-77
2022/12/09 07:23:41;;;;;;;33.83;18.53;;;-0.90;99.90;;;;;;5023774;28;20105;-77
2022/12/09 07:26:07;;;;;;;35.40;19.47;;;-0.90;99.90;;;;;;5012338;28;20171;-77
2022/12/09 07:28:34;;;;;;;36.53;19.77;;;-0.80;99.90;;;;;;5023272;28;20031;-76
2022/12/09 07:31:00;;;;;;;34.33;20.70;;;-0.80;99.90;;;;;;5021770;28;20025;-77
2022/12/09 07:33:25;;;;;;;86.20;44.83;;;-0.80;99.90;;;;;;5024479;28;20032;-76
2022/12/09 07:35:56;;;;;;;42.53;23.50;;;-0.90;99.90;;;;;;5023792;28;20021;-76
2022/12/09 07:38:23;;;;;;;48.77;26.47;;;-0.90;99.90;;;;;;5024630;28;20025;-76
2022/12/09 07:40:49;;;;;;;102.63;24.77;;;-0.80;99.90;;;;;;5023751;28;20078;-76
2022/12/09 07:43:14;;;;;;;35.37;20.83;;;-0.80;99.90;;;;;;5024066;28;20789;-76
2022/12/09 07:45:40;;;;;;;36.13;20.27;;;-0.80;99.90;;;;;;5022292;28;20033;-77
2022/12/09 07:48:07;;;;;;;42.07;21.03;;;-0.80;99.90;;;;;;5023613;28;20045;-77
2022/12/09 07:50:33;;;;;;;51.90;21.93;;;-0.80;99.90;;;;;;5022940;28;20029;-77
2022/12/09 07:52:59;;;;;;;34.93;21.50;;;-0.70;99.90;;;;;;5021733;28;20559;-76
2022/12/09 07:55:25;;;;;;;59.13;23.13;;;-0.70;99.90;;;;;;5024996;28;20057;-76
2022/12/09 07:57:50;;;;;;;39.80;24.00;;;-0.70;99.90;;;;;;5023441;28;20386;-77
2022/12/09 08:00:17;;;;;;;36.47;23.50;;;-0.70;99.90;;;;;;5024428;28;20932;-76
2022/12/09 08:02:42;;;;;;;40.10;22.47;;;-0.70;99.90;;;;;;5023136;28;20140;-76
2022/12/09 08:05:08;;;;;;;40.30;21.93;;;-0.70;99.90;;;;;;5022089;28;20037;-77
2022/12/09 08:07:33;;;;;;;84.47;24.30;;;-0.70;99.90;;;;;;5026040;28;20102;-77
2022/12/09 08:09:59;;;;;;;38.60;22.43;;;-0.60;99.90;;;;;;5023134;28;20017;-76
2022/12/09 08:12:25;;;;;;;134.73;28.17;;;-0.70;99.90;;;;;;5021728;28;20141;-76
2022/12/09 08:14:50;;;;;;;49.93;24.43;;;-0.60;99.90;;;;;;5024487;28;20751;-77
2022/12/09 08:17:16;;;;;;;42.43;23.23;;;-0.60;99.90;;;;;;5022892;28;20033;-75
2022/12/09 08:19:42;;;;;;;51.80;27.47;;;-0.60;99.90;;;;;;5021973;28;20041;-76
2022/12/09 08:22:08;;;;;;;56.13;26.97;;;-0.60;99.90;;;;;;5023117;28;20430;-75
2022/12/09 08:24:33;;;;;;;61.37;26.63;;;-0.60;99.90;;;;;;5022940;28;20022;-76
2022/12/09 08:26:59;;;;;;;71.17;29.13;;;-0.50;99.90;;;;;;5011605;28;20771;-76
2022/12/09 08:29:25;;;;;;;46.77;27.50;;;-0.50;99.90;;;;;;5024514;28;20021;-76
2022/12/09 08:31:51;;;;;;;57.93;27.40;;;-0.50;99.90;;;;;;5023064;28;20036;-75
2022/12/09 08:34:17;;;;;;;58.03;32.37;;;-0.50;99.90;;;;;;5024906;28;20382;-76
2022/12/09 08:36:43;;;;;;;56.47;29.33;;;-0.40;99.90;;;;;;5041837;28;20119;-76
2022/12/09 08:39:10;;;;;;;51.13;28.40;;;-0.40;99.90;;;;;;5024878;28;20033;-76
2022/12/09 08:41:36;;;;;;;84.63;48.00;;;-0.40;99.90;;;;;;5026672;28;20056;-76
2022/12/09 08:44:12;;;;;;;63.17;38.27;;;-0.40;99.90;;;;;;5016059;28;20514;-76
2022/12/09 08:46:40;;;;;;;59.23;32.30;;;-0.30;99.90;;;;;;5027653;28;20033;-76
2022/12/09 08:49:07;;;;;;;54.20;29.30;;;-0.30;99.90;;;;;;5027194;28;20033;-76
2022/12/09 08:51:33;;;;;;;58.17;33.77;;;-0.40;99.90;;;;;;5027064;28;20104;-76
2022/12/09 08:53:59;;;;;;;51.10;28.90;;;-0.30;99.90;;;;;;5028908;28;20021;-76
2022/12/09 08:56:25;;;;;;;54.53;30.90;;;-0.30;99.90;;;;;;5027239;28;20033;-76
2022/12/09 08:58:52;;;;;;;56.57;29.80;;;-0.30;99.90;;;;;;5025592;28;20042;-76
2022/12/09 09:01:21;;;;;;;59.27;31.67;;;-0.30;99.90;;;;;;5026439;28;20057;-76
2022/12/09 09:03:48;;;;;;;61.80;32.40;;;-0.30;99.90;;;;;;5031286;28;20030;-76
2022/12/09 09:06:15;;;;;;;59.07;33.47;;;-0.30;99.90;;;;;;5027793;28;20045;-76
2022/12/09 09:08:40;;;;;;;56.83;30.83;;;-0.30;99.90;;;;;;5027451;28;20108;-76
2022/12/09 09:11:11;;;;;;;60.83;31.27;;;-0.30;99.90;;;;;;5026631;28;20087;-76
2022/12/09 09:13:42;;;;;;;59.67;34.20;;;-0.30;99.90;;;;;;5027095;28;20022;-76
2022/12/09 09:16:10;;;;;;;121.30;54.63;;;-0.30;99.90;;;;;;5027001;28;20060;-76
2022/12/09 09:18:36;;;;;;;97.93;45.07;;;-0.20;99.90;;;;;;5026012;28;20017;-76
2022/12/09 09:21:02;;;;;;;61.20;34.87;;;-0.20;99.90;;;;;;5026586;28;20076;-76
2022/12/09 09:23:28;;;;;;;62.30;32.03;;;-0.20;99.90;;;;;;5027105;28;20402;-79
2022/12/09 09:25:53;;;;;;;64.00;34.63;;;-0.10;99.90;;;;;;5024483;28;20430;-76
2022/12/09 09:28:19;;;;;;;63.13;32.90;;;0.00;99.90;;;;;;5024327;28;20021;-77
2022/12/09 09:30:49;;;;;;;59.53;32.93;;;-0.10;99.90;;;;;;5023726;28;20064;-76
2022/12/09 09:33:15;;;;;;;64.17;32.90;;;-0.10;99.90;;;;;;5026296;28;20509;-77
2022/12/09 09:35:41;;;;;;;66.87;34.60;;;0.00;99.90;;;;;;5014215;28;20029;-77
2022/12/09 09:38:06;;;;;;;64.43;35.03;;;0.00;99.90;;;;;;5026762;28;20029;-77
2022/12/09 09:40:32;;;;;;;64.37;36.03;;;0.00;99.90;;;;;;5027837;28;20100;-76
2022/12/09 09:42:59;;;;;;;62.33;33.70;;;0.00;99.90;;;;;;5025734;28;20112;-78
2022/12/09 09:45:24;;;;;;;65.70;36.20;;;0.00;99.90;;;;;;5027916;28;20033;-77
2022/12/09 09:48:03;;;;;;;73.00;39.67;;;0.00;99.90;;;;;;5025644;28;20022;-77
2022/12/09 09:50:37;;;;;;;75.33;37.20;;;0.10;99.90;;;;;;5028466;28;20024;-77
2022/12/09 09:53:20;;;;;;;66.63;34.33;;;0.10;99.90;;;;;;5026166;28;20049;-77
2022/12/09 09:56:01;;;;;;;69.50;35.00;;;0.10;99.90;;;;;;5026033;28;20036;-77
2022/12/09 09:58:48;;;;;;;70.93;38.30;;;0.10;99.90;;;;;;5024475;28;20053;-77
2022/12/09 10:01:17;;;;;;;62.03;32.37;;;0.20;99.90;;;;;;5027858;28;20490;-77
2022/12/09 10:03:45;;;;;;;62.17;33.90;;;0.20;99.90;;;;;;5026002;28;20079;-77
2022/12/09 10:06:14;;;;;;;59.73;31.13;;;0.20;99.90;;;;;;5025512;28;20044;-77
2022/12/09 10:09:14;;;;;;;61.07;32.00;;;0.20;99.90;;;;;;5025591;28;20735;-77
2022/12/09 10:11:54;;;;;;;64.13;34.13;;;0.30;99.90;;;;;;5018997;28;20048;-77
2022/12/09 10:14:48;;;;;;;60.63;32.03;;;0.30;99.90;;;;;;5016132;28;20159;-77
2022/12/09 10:17:24;;;;;;;60.13;31.50;;;0.20;99.90;;;;;;5046420;28;20189;-77
2022/12/09 10:20:13;;;;;;;61.57;32.87;;;0.30;99.90;;;;;;5026331;28;20025;-77
2022/12/09 10:22:46;;;;;;;57.43;31.03;;;0.30;99.90;;;;;;5025802;28;20104;-77
2022/12/09 10:25:33;;;;;;;63.17;33.60;;;0.30;99.90;;;;;;5024913;28;20161;-77
2022/12/09 10:28:17;;;;;;;59.43;30.60;;;0.30;99.90;;;;;;5024672;28;20198;-77
2022/12/09 10:30:42;;;;;;;56.30;31.20;;;0.40;99.90;;;;;;5028466;28;20172;-74
2022/12/09 10:33:13;;;;;;;52.33;28.37;;;0.40;99.90;;;;;;5022051;28;20505;-75
2022/12/09 10:35:38;;;;;;;45.40;26.13;;;0.40;99.90;;;;;;5034572;28;20040;-75
2022/12/09 10:38:16;;;;;;;40.03;24.07;;;0.40;99.90;;;;;;5031026;28;20025;-75
2022/12/09 10:40:44;;;;;;;44.13;24.43;;;0.50;99.90;;;;;;5034560;28;20022;-75
2022/12/09 10:43:35;;;;;;;39.10;23.03;;;0.60;99.90;;;;;;5030744;28;20029;-74
2022/12/09 10:46:07;;;;;;;38.87;22.93;;;0.60;99.90;;;;;;5026902;28;20056;-75
2022/12/09 10:48:43;;;;;;;43.53;24.70;;;0.70;99.90;;;;;;5023444;28;20029;-74
2022/12/09 10:51:33;;;;;;;41.42;24.77;;;0.70;99.90;;;;;;5022608;28;20029;-74
2022/12/09 10:54:10;;;;;;;44.53;27.83;;;0.70;99.90;;;;;;5023616;28;20031;-74
2022/12/09 10:56:38;;;;;;;52.33;31.30;;;0.70;99.90;;;;;;5025506;28;20034;-74
2022/12/09 10:59:22;;;;;;;57.67;34.53;;;0.70;99.90;;;;;;5026111;28;20715;-74
2022/12/09 11:01:52;;;;;;;51.27;29.50;;;0.70;99.90;;;;;;5024293;28;20034;-74
2022/12/09 11:04:27;;;;;;;44.80;25.07;;;0.70;99.90;;;;;;5025725;28;20044;-75
2022/12/09 11:07:18;;;;;;;47.83;26.83;;;0.70;99.90;;;;;;5023823;28;20529;-74
2022/12/09 11:10:03;;;;;;;47.93;28.27;;;0.70;99.90;;;;;;5023997;28;20040;-74
2022/12/09 11:12:32;;;;;;;45.97;26.25;;;0.70;99.90;;;;;;5025009;28;20029;-74
2022/12/09 11:15:00;;;;;;;49.33;28.67;;;0.70;99.90;;;;;;5024921;28;20036;-74
2022/12/09 11:17:29;;;;;;;53.87;30.27;;;0.70;99.90;;;;;;5023393;28;20032;-75
2022/12/09 11:20:19;;;;;;;53.60;30.10;;;0.70;99.90;;;;;;5025254;28;20025;-74
2022/12/09 11:22:56;;;;;;;55.10;31.33;;;0.70;99.90;;;;;;5012745;28;21441;-74
2022/12/09 11:25:33;;;;;;;60.23;33.67;;;0.60;99.90;;;;;;5030447;28;20553;-74
2022/12/09 11:28:01;;;;;;;61.63;33.60;;;0.70;99.90;;;;;;5030874;28;20021;-75
2022/12/09 11:30:32;;;;;;;62.00;33.47;;;0.60;99.90;;;;;;5029840;28;20064;-74
2022/12/09 11:33:06;;;;;;;64.80;34.30;;;0.60;99.90;;;;;;5029003;28;20036;-76
2022/12/09 11:35:31;;;;;;;59.07;32.40;;;0.60;99.90;;;;;;5024584;28;20063;-78
2022/12/09 11:38:01;;;;;;;62.80;33.83;;;0.60;99.90;;;;;;5025590;28;20474;-78
2022/12/09 11:40:28;;;;;;;67.83;35.13;;;0.60;99.90;;;;;;5027493;28;20037;-75
2022/12/09 11:42:55;;;;;;;66.70;33.40;;;0.60;99.90;;;;;;5025937;28;20128;-75
2022/12/09 11:45:34;;;;;;;66.20;36.07;;;0.60;99.90;;;;;;5027030;28;20505;-75
2022/12/09 11:48:05;;;;;;;83.03;42.80;;;0.60;99.90;;;;;;5026890;28;20057;-75
2022/12/09 11:50:32;;;;;;;63.13;33.53;;;0.60;99.90;;;;;;5025817;28;20803;-77
2022/12/09 11:53:09;;;;;;;189.57;85.43;;;0.60;99.90;;;;;;5024570;28;20025;-77
2022/12/09 11:55:42;;;;;;;155.30;71.63;;;0.60;99.90;;;;;;5024572;28;20493;-78
2022/12/09 11:58:13;;;;;;;72.17;36.87;;;0.60;99.90;;;;;;5026019;28;20589;-77
2022/12/09 12:00:48;;;;;;;121.77;59.70;;;0.60;99.90;;;;;;5025446;28;20025;-77
2022/12/09 12:03:25;;;;;;;71.53;38.17;;;0.50;99.90;;;;;;5023603;28;20030;-77
2022/12/09 12:05:53;;;;;;;67.10;35.57;;;0.50;99.90;;;;;;5025008;28;20045;-78
2022/12/09 12:08:42;;;;;;;72.93;37.37;;;0.50;99.90;;;;;;5035971;28;20102;-88
2022/12/09 12:11:13;;;;;;;83.10;42.13;;;0.50;99.90;;;;;;5029415;28;20025;-77
2022/12/09 12:13:47;;;;;;;80.63;40.67;;;0.50;99.90;;;;;;5028517;28;20029;-77
2022/12/09 12:16:29;;;;;;;69.03;35.27;;;0.40;99.90;;;;;;5029302;28;20045;-77
2022/12/09 12:19:28;;;;;;;66.20;33.63;;;0.40;99.90;;;;;;5028963;28;20749;-75
2022/12/09 12:22:02;;;;;;;66.03;33.63;;;0.40;99.90;;;;;;5026564;28;20025;-75
2022/12/09 12:24:39;;;;;;;63.37;34.43;;;0.50;99.90;;;;;;5030025;28;20025;-75
2022/12/09 12:27:19;;;;;;;64.20;32.37;;;0.40;99.90;;;;;;5012935;28;20571;-75
2022/12/09 12:29:57;;;;;;;56.27;31.40;;;0.50;99.90;;;;;;5030674;28;20087;-75
2022/12/09 12:32:33;;;;;;;63.47;32.87;;;0.40;99.90;;;;;;5027358;28;20389;-75
2022/12/09 12:35:16;;;;;;;61.65;31.15;;;0.40;99.90;;;;;;5027123;28;20096;-75
2022/12/09 12:38:01;;;;;;;67.03;35.20;;;0.40;99.90;;;;;;5028305;28;20049;-75
2022/12/09 12:40:49;;;;;;;58.10;31.75;;;0.40;99.90;;;;;;5015324;28;20032;-75